createdAt,value
2023-01-07T00:00:25.294Z,6.80
2023-01-07T00:03:02.353Z,6.80
2023-01-07T00:05:30.577Z,6.80
2023-01-07T00:08:00.381Z,6.80
2023-01-07T00:10:28.693Z,6.80
2023-01-07T00:12:59.028Z,6.70
2023-01-07T00:15:27.403Z,6.80
2023-01-07T00:17:55.922Z,6.80
2023-01-07T00:20:25.177Z,6.80
2023-01-07T00:22:53.480Z,6.90
2023-01-07T00:25:21.862Z,6.90
2023-01-07T00:27:53.264Z,6.90
2023-01-07T00:30:23.035Z,6.90
2023-01-07T00:33:05.130Z,7.00
2023-01-07T00:35:34.352Z,7.00
2023-01-07T00:38:02.552Z,6.90
2023-01-07T00:40:32.223Z,6.80
2023-01-07T00:43:05.192Z,6.80
2023-01-07T00:45:37.905Z,6.80
2023-01-07T00:48:06.803Z,6.80
2023-01-07T00:50:36.782Z,6.90
2023-01-07T00:53:05.794Z,6.90
2023-01-07T00:55:34.204Z,6.90
2023-01-07T00:58:02.420Z,7.00
2023-01-07T01:00:30.783Z,7.00
2023-01-07T01:03:00.517Z,7.00
2023-01-07T01:05:28.631Z,7.00
2023-01-07T01:07:56.908Z,7.00
2023-01-07T01:10:25.102Z,7.00
2023-01-07T01:12:53.529Z,7.10
2023-01-07T01:15:21.827Z,7.00
2023-01-07T01:17:52.239Z,7.10
2023-01-07T01:20:22.512Z,7.10
2023-01-07T01:22:50.796Z,7.10
2023-01-07T01:25:19.109Z,7.10
2023-01-07T01:27:47.250Z,7.00
2023-01-07T01:30:15.316Z,7.00
2023-01-07T01:32:43.658Z,7.00
2023-01-07T01:35:11.785Z,7.00
2023-01-07T01:37:41.273Z,7.00
2023-01-07T01:40:10.872Z,7.10
2023-01-07T01:42:39.080Z,7.10
2023-01-07T01:45:08.272Z,7.10
2023-01-07T01:47:39.944Z,7.10
2023-01-07T01:50:14.658Z,7.10
2023-01-07T01:52:48.735Z,7.00
2023-01-07T01:55:20.032Z,7.00
2023-01-07T01:57:50.176Z,7.00
2023-01-07T02:00:18.437Z,7.00
2023-01-07T02:02:50.100Z,7.10
2023-01-07T02:05:18.660Z,7.00
2023-01-07T02:07:48.198Z,7.00
2023-01-07T02:10:19.452Z,7.10
2023-01-07T02:13:18.876Z,7.10
2023-01-07T02:15:55.333Z,7.10
2023-01-07T02:18:40.821Z,7.10
2023-01-07T02:21:18.953Z,7.10
2023-01-07T02:24:32.822Z,7.20
2023-01-07T02:27:23.097Z,7.20
2023-01-07T02:30:35.364Z,7.20
2023-01-07T02:33:17.717Z,7.20
2023-01-07T02:35:59.301Z,7.20
2023-01-07T02:38:35.454Z,7.20
2023-01-07T02:41:11.725Z,7.20
2023-01-07T02:43:51.494Z,7.20
2023-01-07T02:46:24.759Z,7.20
2023-01-07T02:48:54.281Z,7.20
2023-01-07T02:51:32.117Z,7.10
2023-01-07T02:54:00.837Z,7.10
2023-01-07T02:56:38.021Z,7.10
2023-01-07T02:59:37.727Z,7.10
2023-01-07T03:02:31.031Z,7.10
2023-01-07T03:05:28.792Z,7.10
2023-01-07T03:08:16.480Z,7.10
2023-01-07T03:10:51.137Z,7.10
2023-01-07T03:13:23.897Z,7.10
2023-01-07T03:15:57.373Z,7.10
2023-01-07T03:18:30.198Z,7.00
2023-01-07T03:21:05.012Z,7.10
2023-01-07T03:23:37.128Z,7.00
2023-01-07T03:26:09.098Z,7.00
2023-01-07T03:28:41.581Z,7.00
2023-01-07T03:31:12.790Z,7.00
2023-01-07T03:33:46.833Z,6.90
2023-01-07T03:36:19.306Z,6.90
2023-01-07T03:38:49.370Z,6.90
2023-01-07T03:41:31.385Z,6.90
2023-01-07T03:43:59.680Z,6.80
2023-01-07T03:46:27.928Z,6.80
2023-01-07T03:48:57.364Z,6.80
2023-01-07T03:51:26.827Z,6.80
2023-01-07T03:53:57.348Z,6.80
2023-01-07T03:56:25.436Z,6.80
2023-01-07T03:58:53.559Z,6.80
2023-01-07T04:01:21.745Z,6.80
2023-01-07T04:03:49.951Z,6.70
2023-01-07T04:06:19.214Z,6.80
2023-01-07T04:08:48.684Z,6.80
2023-01-07T04:11:16.848Z,6.80
2023-01-07T04:13:44.889Z,6.80
2023-01-07T04:16:14.136Z,6.70
2023-01-07T04:18:42.496Z,6.70
2023-01-07T04:21:10.566Z,6.70
2023-01-07T04:23:42.226Z,6.70
2023-01-07T04:26:11.664Z,6.70
2023-01-07T04:28:42.727Z,6.70
2023-01-07T04:31:11.977Z,6.70
2023-01-07T04:33:40.146Z,6.60
2023-01-07T04:36:08.777Z,6.60
2023-01-07T04:38:36.835Z,6.60
2023-01-07T04:41:05.086Z,6.60
2023-01-07T04:43:35.327Z,6.60
2023-01-07T04:46:03.935Z,6.60
2023-01-07T04:48:32.127Z,6.60
2023-01-07T04:51:00.607Z,6.60
2023-01-07T04:53:28.675Z,6.70
2023-01-07T04:55:56.744Z,6.60
2023-01-07T04:58:25.180Z,6.60
2023-01-07T05:00:58.251Z,6.60
2023-01-07T05:03:26.783Z,6.60
2023-01-07T05:05:54.844Z,6.60
2023-01-07T05:08:22.987Z,6.70
2023-01-07T05:10:51.329Z,6.60
2023-01-07T05:13:20.675Z,6.60
2023-01-07T05:15:49.332Z,6.60
2023-01-07T05:18:18.826Z,6.60
2023-01-07T05:20:47.634Z,6.60
2023-01-07T05:23:15.720Z,6.50
2023-01-07T05:25:44.012Z,6.50
2023-01-07T05:28:12.903Z,6.50
2023-01-07T05:30:41.091Z,6.50
2023-01-07T05:33:09.410Z,6.50
2023-01-07T05:35:38.981Z,6.50
2023-01-07T05:38:07.023Z,6.40
2023-01-07T05:40:35.147Z,6.40
2023-01-07T05:43:03.181Z,6.40
2023-01-07T05:45:31.213Z,6.40
2023-01-07T05:47:59.361Z,6.40
2023-01-07T05:50:27.533Z,6.40
2023-01-07T05:52:56.959Z,6.40
2023-01-07T05:55:25.022Z,6.40
2023-01-07T05:57:53.073Z,6.40
2023-01-07T06:00:21.196Z,6.40
2023-01-07T06:02:50.424Z,6.40
2023-01-07T06:05:18.579Z,6.30
2023-01-07T06:07:47.383Z,6.30
2023-01-07T06:10:16.994Z,6.30
2023-01-07T06:12:45.074Z,6.30
2023-01-07T06:15:13.427Z,6.30
2023-01-07T06:17:41.499Z,6.30
2023-01-07T06:20:11.034Z,6.30
2023-01-07T06:22:39.089Z,6.30
2023-01-07T06:25:07.496Z,6.20
2023-01-07T06:27:36.957Z,6.30
2023-01-07T06:30:05.857Z,6.30
2023-01-07T06:32:37.772Z,6.30
2023-01-07T06:35:06.982Z,6.20
2023-01-07T06:37:35.377Z,6.20
2023-01-07T06:40:03.568Z,6.20
2023-01-07T06:42:31.701Z,6.20
2023-01-07T06:45:01.241Z,6.20
2023-01-07T06:47:29.315Z,6.10
2023-01-07T06:49:57.496Z,6.10
2023-01-07T06:52:25.542Z,6.10
2023-01-07T06:54:53.620Z,6.10
2023-01-07T06:57:21.702Z,6.10
2023-01-07T06:59:49.765Z,6.10
2023-01-07T07:02:22.631Z,6.10
2023-01-07T07:04:51.891Z,6.10
2023-01-07T07:07:20.122Z,6.10
2023-01-07T07:09:48.515Z,6.10
2023-01-07T07:12:16.562Z,6.10
2023-01-07T07:14:44.670Z,6.10
2023-01-07T07:17:13.053Z,6.10
2023-01-07T07:19:42.593Z,6.20
2023-01-07T07:22:10.810Z,6.20
2023-01-07T07:24:38.950Z,6.30
2023-01-07T07:27:07.034Z,6.20
2023-01-07T07:29:35.216Z,6.20
2023-01-07T07:32:03.406Z,6.30
2023-01-07T07:34:31.440Z,6.30
2023-01-07T07:37:00.863Z,6.30
2023-01-07T07:39:29.023Z,6.40
2023-01-07T07:41:57.060Z,6.40
2023-01-07T07:44:25.152Z,6.40
2023-01-07T07:46:53.321Z,6.40
2023-01-07T07:49:21.545Z,6.40
2023-01-07T07:51:49.595Z,6.40
2023-01-07T07:54:19.022Z,6.40
2023-01-07T07:56:47.174Z,6.40
2023-01-07T07:59:15.233Z,6.30
2023-01-07T08:01:43.365Z,6.30
2023-01-07T08:04:11.486Z,6.30
2023-01-07T08:06:39.563Z,6.30
2023-01-07T08:09:07.836Z,6.30
2023-01-07T08:11:37.329Z,6.30
2023-01-07T08:14:05.378Z,6.30
2023-01-07T08:16:33.924Z,6.30
2023-01-07T08:19:01.965Z,6.30
2023-01-07T08:21:30.042Z,6.40
2023-01-07T08:23:58.096Z,6.40
2023-01-07T08:26:26.147Z,6.40
2023-01-07T08:28:55.618Z,6.50
2023-01-07T08:31:23.862Z,6.50
2023-01-07T08:33:51.942Z,6.50
2023-01-07T08:36:23.720Z,6.50
2023-01-07T08:38:52.943Z,6.60
2023-01-07T08:41:21.459Z,6.60
2023-01-07T08:43:50.375Z,6.60
2023-01-07T08:46:19.932Z,6.50
2023-01-07T08:48:48.004Z,6.60
2023-01-07T08:51:16.268Z,6.60
2023-01-07T08:53:44.463Z,6.60
2023-01-07T08:56:12.529Z,6.60
2023-01-07T08:58:40.573Z,6.60
2023-01-07T09:01:09.310Z,6.70
2023-01-07T09:03:39.761Z,6.60
2023-01-07T09:06:08.539Z,6.60
2023-01-07T09:08:36.646Z,6.70
2023-01-07T09:11:05.098Z,6.70
2023-01-07T09:13:33.233Z,6.70
2023-01-07T09:16:01.467Z,6.70
2023-01-07T09:18:30.584Z,6.70
2023-01-07T09:21:02.440Z,6.70
2023-01-07T09:23:30.636Z,6.70
2023-01-07T09:25:58.694Z,6.80
2023-01-07T09:28:26.797Z,6.80
2023-01-07T09:30:56.836Z,6.90
2023-01-07T09:33:25.101Z,6.90
2023-01-07T09:35:53.348Z,6.90
2023-01-07T09:38:22.843Z,7.00
2023-01-07T09:40:51.270Z,7.00
2023-01-07T09:43:59.949Z,7.00
2023-01-07T09:46:22.193Z,7.10
2023-01-07T09:48:56.436Z,7.30
2023-01-07T09:51:28.515Z,7.40
2023-01-07T09:54:01.426Z,7.40
2023-01-07T09:56:32.187Z,7.40
2023-01-07T09:59:02.084Z,7.30
2023-01-07T10:01:37.391Z,7.40
2023-01-07T10:04:20.204Z,7.60
2023-01-07T10:06:58.317Z,7.60
2023-01-07T10:09:37.155Z,7.70
2023-01-07T10:12:13.880Z,7.80
2023-01-07T10:15:03.379Z,7.70
2023-01-07T10:17:44.366Z,7.90
2023-01-07T10:20:19.355Z,8.00
2023-01-07T10:22:52.401Z,8.10
2023-01-07T10:25:25.565Z,8.10
2023-01-07T10:27:57.122Z,8.10
2023-01-07T10:30:30.920Z,8.20
2023-01-07T10:33:12.728Z,8.20
2023-01-07T10:35:41.879Z,8.30
2023-01-07T10:38:16.375Z,8.30
2023-01-07T10:40:50.012Z,8.40
2023-01-07T10:43:29.502Z,8.40
2023-01-07T10:46:16.898Z,8.30
2023-01-07T10:49:08.280Z,8.30
2023-01-07T10:52:03.755Z,8.40
2023-01-07T10:54:59.748Z,8.50
2023-01-07T10:57:31.351Z,8.50
2023-01-07T11:00:03.899Z,8.50
2023-01-07T11:02:32.329Z,8.50
2023-01-07T11:05:00.884Z,8.50
2023-01-07T11:07:35.572Z,8.50
2023-01-07T11:10:06.517Z,8.70
2023-01-07T11:58:31.002Z,9.60
2023-01-07T12:01:25.597Z,9.90
2023-01-07T12:04:14.644Z,9.90
2023-01-07T12:06:47.632Z,9.80
2023-01-07T12:09:25.933Z,9.80
2023-01-07T12:11:56.195Z,9.70
2023-01-07T12:14:31.780Z,9.70
2023-01-07T12:17:13.356Z,9.90
2023-01-07T12:20:14.659Z,10.10
2023-01-07T12:22:50.491Z,10.10
2023-01-07T12:25:45.508Z,10.50
2023-01-07T12:28:16.697Z,10.30
2023-01-07T12:31:08.403Z,10.00
2023-01-07T12:33:54.281Z,10.00
2023-01-07T12:36:33.156Z,9.90
2023-01-07T12:39:15.534Z,10.20
2023-01-07T12:41:50.451Z,10.30
2023-01-07T12:44:22.891Z,10.10
2023-01-07T12:47:30.932Z,10.40
2023-01-07T12:50:00.008Z,10.40
2023-01-07T12:52:39.628Z,10.30
2023-01-07T12:55:20.843Z,10.40
2023-01-07T12:58:05.307Z,10.40
2023-01-07T13:00:55.252Z,10.50
2023-01-07T13:03:36.008Z,10.40
2023-01-07T13:06:17.182Z,10.30
2023-01-07T13:08:58.842Z,10.50
2023-01-07T13:12:03.721Z,10.50
2023-01-07T13:14:41.431Z,10.40
2023-01-07T13:17:17.242Z,10.50
2023-01-07T13:19:46.813Z,10.40
2023-01-07T13:22:21.479Z,10.40
2023-01-07T13:25:13.663Z,10.40
2023-01-07T13:28:10.646Z,10.30
2023-01-07T13:30:52.997Z,10.50
2023-01-07T13:33:44.346Z,10.50
2023-01-07T13:36:30.171Z,10.40
2023-01-07T13:39:31.976Z,10.30
2023-01-07T13:42:28.220Z,10.20
2023-01-07T13:45:02.915Z,10.20
2023-01-07T13:47:45.894Z,10.40
2023-01-07T13:50:36.414Z,10.50
2023-01-07T13:53:31.239Z,10.60
2023-01-07T13:56:46.078Z,10.60
2023-01-07T13:59:32.264Z,10.30
2023-01-07T14:02:19.772Z,10.20
2023-01-07T14:05:04.481Z,10.50
2023-01-07T14:07:33.736Z,10.70
2023-01-07T14:10:04.641Z,10.40
2023-01-07T14:13:06.311Z,10.40
2023-01-07T14:16:12.877Z,10.20
2023-01-07T14:19:03.001Z,10.10
2023-01-07T14:21:51.062Z,9.90
2023-01-07T14:24:52.708Z,10.00
2023-01-07T14:27:42.531Z,9.90
2023-01-07T14:30:21.631Z,9.80
2023-01-07T14:33:03.293Z,9.80
2023-01-07T14:35:35.512Z,9.70
2023-01-07T14:38:42.343Z,9.50
2023-01-07T14:41:17.760Z,9.20
2023-01-07T14:44:03.851Z,9.10
2023-01-07T14:46:55.811Z,9.00
2023-01-07T14:49:47.490Z,8.90
2023-01-07T14:52:54.432Z,8.80
2023-01-07T14:55:50.947Z,8.70
2023-01-07T14:58:58.657Z,8.60
2023-01-07T15:02:13.082Z,8.50
2023-01-07T15:05:16.473Z,8.20
2023-01-07T15:07:50.079Z,8.10
2023-01-07T15:10:42.045Z,8.10
2023-01-07T15:13:34.849Z,8.00
2023-01-07T15:16:07.427Z,7.90
2023-01-07T15:18:47.174Z,7.90
2023-01-07T15:21:27.128Z,7.80
2023-01-07T15:24:04.803Z,7.70
2023-01-07T15:26:42.474Z,7.60
2023-01-07T15:29:18.612Z,7.50
2023-01-07T15:31:55.884Z,7.40
2023-01-07T15:34:26.793Z,7.30
2023-01-07T15:37:06.229Z,7.30
2023-01-07T15:39:40.386Z,7.20
2023-01-07T15:42:16.229Z,7.10
2023-01-07T15:44:44.601Z,7.00
2023-01-07T15:47:37.146Z,7.00
2023-01-07T15:50:27.441Z,6.90
2023-01-07T15:53:01.004Z,6.80
2023-01-07T15:55:33.618Z,6.80
2023-01-07T15:58:09.576Z,6.70
2023-01-07T16:00:38.015Z,6.60
2023-01-07T16:03:07.155Z,6.50
2023-01-07T16:05:39.436Z,6.50
2023-01-07T16:08:18.344Z,6.40
2023-01-07T16:11:00.134Z,6.40
2023-01-07T16:13:29.081Z,6.30
2023-01-07T16:16:06.657Z,6.20
2023-01-07T16:18:35.166Z,6.20
2023-01-07T16:21:06.663Z,6.10
2023-01-07T16:23:38.356Z,6.00
2023-01-07T16:26:09.021Z,6.00
2023-01-07T16:28:41.963Z,6.00
2023-01-07T16:31:14.462Z,6.00
2023-01-07T16:33:44.251Z,5.90
2023-01-07T16:36:19.279Z,5.80
2023-01-07T16:38:52.779Z,5.80
2023-01-07T16:41:22.651Z,5.80
2023-01-07T16:43:53.095Z,5.70
2023-01-07T16:46:27.116Z,5.70
2023-01-07T16:49:20.259Z,5.60
2023-01-07T16:51:51.709Z,5.60
2023-01-07T16:54:31.372Z,5.60
2023-01-07T16:57:01.549Z,5.50
2023-01-07T16:59:32.854Z,5.50
2023-01-07T17:02:15.506Z,5.40
2023-01-07T17:04:45.665Z,5.40
2023-01-07T17:07:21.972Z,5.40
2023-01-07T17:09:54.809Z,5.40
2023-01-07T17:12:36.674Z,5.30
2023-01-07T17:15:34.898Z,5.30
2023-01-07T17:18:29.155Z,5.20
2023-01-07T17:21:44.120Z,5.20
2023-01-07T17:24:48.031Z,5.10
2023-01-07T17:27:30.619Z,5.00
2023-01-07T17:30:03.785Z,5.00
2023-01-07T17:32:33.052Z,5.00
2023-01-07T17:35:05.290Z,5.00
2023-01-07T17:37:34.073Z,5.00
2023-01-07T17:40:02.678Z,5.00
2023-01-07T17:42:51.766Z,4.90
2023-01-07T17:45:37.882Z,4.80
2023-01-07T17:48:15.690Z,4.80
2023-01-07T17:50:45.096Z,4.70
2023-01-07T17:53:23.756Z,4.70
2023-01-07T17:55:52.998Z,4.70
2023-01-07T17:58:29.350Z,4.70
2023-01-07T18:00:59.154Z,4.70
2023-01-07T18:03:27.780Z,4.60
2023-01-07T18:05:58.049Z,4.50
2023-01-07T18:08:27.868Z,4.30
2023-01-07T18:11:15.021Z,4.30
2023-01-07T18:13:44.913Z,4.20
2023-01-07T18:16:15.540Z,4.30
2023-01-07T18:18:44.220Z,4.30
2023-01-07T18:21:13.486Z,4.30
2023-01-07T18:23:41.836Z,4.40
2023-01-07T18:26:10.258Z,4.30
2023-01-07T18:28:38.559Z,4.20
2023-01-07T18:31:12.788Z,4.10
2023-01-07T18:33:41.715Z,4.00
2023-01-07T18:36:10.829Z,3.80
2023-01-07T18:38:46.385Z,3.90
2023-01-07T18:41:21.287Z,3.90
2023-01-07T18:43:52.586Z,3.80
2023-01-07T18:46:22.404Z,3.90
2023-01-07T18:48:50.670Z,3.90
2023-01-07T18:51:19.039Z,3.80
2023-01-07T18:53:50.528Z,3.70
2023-01-07T18:56:21.106Z,3.70
2023-01-07T18:58:54.618Z,3.70
2023-01-07T19:01:25.346Z,3.60
2023-01-07T19:03:54.943Z,3.60
2023-01-07T19:06:23.236Z,3.50
2023-01-07T19:08:51.562Z,3.50
2023-01-07T19:11:20.870Z,3.50
2023-01-07T19:13:54.493Z,3.50
2023-01-07T19:16:30.452Z,3.50
2023-01-07T19:19:00.998Z,3.40
2023-01-07T19:21:29.247Z,3.30
2023-01-07T19:24:05.338Z,3.30
2023-01-07T19:26:35.339Z,3.30
2023-01-07T19:29:04.771Z,3.30
2023-01-07T19:31:36.530Z,3.20
2023-01-07T19:34:06.694Z,3.20
2023-01-07T19:36:35.181Z,3.10
2023-01-07T19:39:03.556Z,3.00
2023-01-07T19:41:33.061Z,3.00
2023-01-07T19:44:02.046Z,2.90
2023-01-07T19:46:34.469Z,2.90
2023-01-07T19:49:13.447Z,3.00
2023-01-07T19:51:42.950Z,3.00
2023-01-07T19:54:12.887Z,3.00
2023-01-07T19:56:41.380Z,3.10
2023-01-07T19:59:11.887Z,3.00
2023-01-07T20:01:40.712Z,3.00
2023-01-07T20:04:13.383Z,3.00
2023-01-07T20:06:41.807Z,3.10
2023-01-07T20:09:11.642Z,3.10
2023-01-07T20:11:42.580Z,3.20
2023-01-07T20:14:11.976Z,3.30
2023-01-07T20:16:42.099Z,3.40
2023-01-07T20:19:11.723Z,3.60
2023-01-07T20:21:42.283Z,3.60
2023-01-07T20:24:13.219Z,3.60
2023-01-07T20:26:45.186Z,3.70
2023-01-07T20:29:13.659Z,3.60
2023-01-07T20:31:41.742Z,3.60
2023-01-07T20:34:11.358Z,3.50
2023-01-07T20:36:47.944Z,3.50
2023-01-07T20:39:15.935Z,3.40
2023-01-07T20:41:43.951Z,3.30
2023-01-07T20:44:12.653Z,3.30
2023-01-07T20:46:40.815Z,3.20
2023-01-07T20:49:12.339Z,3.30
2023-01-07T20:51:40.464Z,3.30
2023-01-07T20:54:09.877Z,3.20
2023-01-07T20:56:37.934Z,3.10
2023-01-07T20:59:06.112Z,3.10
2023-01-07T21:01:34.425Z,3.00
2023-01-07T21:04:05.936Z,3.00
2023-01-07T21:06:37.235Z,2.90
2023-01-07T21:09:06.404Z,2.80
2023-01-07T21:11:35.971Z,2.90
2023-01-07T21:14:04.438Z,2.90
2023-01-07T21:16:38.021Z,3.00
2023-01-07T21:19:06.453Z,3.00
2023-01-07T21:21:34.940Z,2.90
2023-01-07T21:24:03.052Z,2.80
2023-01-07T21:26:31.474Z,2.70
2023-01-07T21:29:01.493Z,2.70
2023-01-07T21:31:29.928Z,2.80
2023-01-07T21:33:58.761Z,2.80
2023-01-07T21:36:28.435Z,2.70
2023-01-07T21:38:58.362Z,2.70
2023-01-07T21:41:31.030Z,2.60
2023-01-07T21:44:01.832Z,2.50
2023-01-07T21:46:30.393Z,2.40
2023-01-07T21:48:58.887Z,2.50
2023-01-07T21:51:34.260Z,2.40
2023-01-07T21:54:02.259Z,2.50
2023-01-07T21:56:36.723Z,2.40
2023-01-07T21:59:07.962Z,2.40
2023-01-07T22:01:36.602Z,2.40
2023-01-07T22:04:07.995Z,2.30
2023-01-07T22:06:37.565Z,2.30
2023-01-07T22:09:14.420Z,2.10
2023-01-07T22:11:44.099Z,2.10
2023-01-07T22:14:16.562Z,2.10
2023-01-07T22:16:46.936Z,2.00
2023-01-07T22:19:17.384Z,2.20
2023-01-07T22:21:53.206Z,2.10
2023-01-07T22:24:21.635Z,2.20
2023-01-07T22:26:49.757Z,2.30
2023-01-07T22:29:19.411Z,2.20
2023-01-07T22:31:50.037Z,2.10
2023-01-07T22:34:18.540Z,2.00
2023-01-07T22:36:54.374Z,1.90
2023-01-07T22:39:27.240Z,1.90
2023-01-07T22:42:00.613Z,1.80
2023-01-07T22:44:35.044Z,1.70
2023-01-07T22:47:04.408Z,1.70
2023-01-07T22:49:33.860Z,1.70
2023-01-07T22:52:12.158Z,1.70
2023-01-07T22:54:47.938Z,1.70
2023-01-07T22:57:22.443Z,1.70
2023-01-07T22:59:52.457Z,1.60
2023-01-07T23:02:20.687Z,1.60
2023-01-07T23:04:55.517Z,1.50
2023-01-07T23:07:31.324Z,1.50
2023-01-07T23:10:03.667Z,1.40
2023-01-07T23:12:32.147Z,1.40
2023-01-07T23:15:06.251Z,1.40
2023-01-07T23:17:34.937Z,1.30
2023-01-07T23:20:05.771Z,1.40
2023-01-07T23:22:34.312Z,1.30
2023-01-07T23:25:11.248Z,1.20
2023-01-07T23:27:39.747Z,1.30
2023-01-07T23:30:11.064Z,1.20
2023-01-07T23:32:39.547Z,1.30
2023-01-07T23:35:08.830Z,1.20
2023-01-07T23:37:37.310Z,1.10
2023-01-07T23:40:06.571Z,1.00
2023-01-07T23:42:35.046Z,0.90
2023-01-07T23:45:07.325Z,0.90
2023-01-07T23:47:37.120Z,0.90
2023-01-07T23:50:05.902Z,1.00
2023-01-07T23:52:35.400Z,1.00
2023-01-07T23:55:03.682Z,1.00
2023-01-07T23:57:32.014Z,1.00
